sensor_id;sensor_type;location;lat;lon;timestamp;pressure;altitude;pressure_sealevel;temperature;humidity
51781;BME280;37844;57.126;24.288;2023-08-12T00:00:22;102102.41;;;15.35;100.00
51781;BME280;37844;57.126;24.288;2023-08-12T00:03:06;102111.03;;;15.31;100.00
51781;BME280;37844;57.126;24.288;2023-08-12T00:05:52;102111.06;;;15.34;100.00
51781;BME280;37844;57.126;24.288;2023-08-12T00:08:36;102101.66;;;15.43;100.00
51781;BME280;37844;57.126;24.288;2023-08-12T00:11:20;102103.34;;;15.38;100.00
51781;BME280;37844;57.126;24.288;2023-08-12T00:14:04;102103.94;;;15.22;100.00
51781;BME280;37844;57.126;24.288;2023-08-12T00:16:48;102102.06;;;15.12;100.00
51781;BME280;37844;57.126;24.288;2023-08-12T00:19:32;102097.69;;;15.11;100.00
51781;BME280;37844;57.126;24.288;2023-08-12T00:22:16;102095.94;;;15.08;100.00
51781;BME280;37844;57.126;24.288;2023-08-12T00:25:00;102102.19;;;15.19;100.00
51781;BME280;37844;57.126;24.288;2023-08-12T00:27:45;102099.72;;;15.29;100.00
51781;BME280;37844;57.126;24.288;2023-08-12T00:30:29;102096.97;;;15.19;100.00
51781;BME280;37844;57.126;24.288;2023-08-12T00:33:13;102095.25;;;15.20;100.00
51781;BME280;37844;57.126;24.288;2023-08-12T00:35:56;102101.44;;;15.26;100.00
51781;BME280;37844;57.126;24.288;2023-08-12T00:38:41;102109.16;;;15.22;100.00
51781;BME280;37844;57.126;24.288;2023-08-12T00:41:24;102109.97;;;15.19;100.00
51781;BME280;37844;57.126;24.288;2023-08-12T00:44:08;102106.66;;;15.28;100.00
51781;BME280;37844;57.126;24.288;2023-08-12T00:46:52;102102.25;;;15.25;100.00
51781;BME280;37844;57.126;24.288;2023-08-12T00:49:36;102092.63;;;15.17;100.00
51781;BME280;37844;57.126;24.288;2023-08-12T00:52:23;102096.03;;;15.14;100.00
51781;BME280;37844;57.126;24.288;2023-08-12T00:55:08;102100.28;;;15.09;100.00
51781;BME280;37844;57.126;24.288;2023-08-12T00:57:52;102094.19;;;15.09;100.00
51781;BME280;37844;57.126;24.288;2023-08-12T01:00:36;102100.47;;;15.21;100.00
51781;BME280;37844;57.126;24.288;2023-08-12T01:03:21;102098.72;;;15.20;100.00
51781;BME280;37844;57.126;24.288;2023-08-12T01:06:06;102103.13;;;15.24;100.00
51781;BME280;37844;57.126;24.288;2023-08-12T01:08:51;102103.09;;;15.21;100.00
51781;BME280;37844;57.126;24.288;2023-08-12T01:14:51;102103.84;;;15.14;100.00
51781;BME280;37844;57.126;24.288;2023-08-12T01:17:38;102103.75;;;15.11;100.00
51781;BME280;37844;57.126;24.288;2023-08-12T01:20:25;102102.47;;;14.83;100.00
51781;BME280;37844;57.126;24.288;2023-08-12T01:23:16;102105.25;;;14.50;100.00
51781;BME280;37844;57.126;24.288;2023-08-12T01:26:00;102112.69;;;14.30;100.00
51781;BME280;37844;57.126;24.288;2023-08-12T01:28:44;102120.31;;;14.22;100.00
51781;BME280;37844;57.126;24.288;2023-08-12T01:31:43;102117.28;;;14.43;100.00
51781;BME280;37844;57.126;24.288;2023-08-12T01:34:40;102111.34;;;14.50;100.00
51781;BME280;37844;57.126;24.288;2023-08-12T01:37:28;102114.69;;;14.45;100.00
51781;BME280;37844;57.126;24.288;2023-08-12T01:40:14;102116.47;;;14.47;100.00
51781;BME280;37844;57.126;24.288;2023-08-12T01:43:00;102107.72;;;14.40;100.00
51781;BME280;37844;57.126;24.288;2023-08-12T01:45:45;102110.03;;;14.28;100.00
51781;BME280;37844;57.126;24.288;2023-08-12T01:48:29;102109.63;;;14.07;100.00
51781;BME280;37844;57.126;24.288;2023-08-12T01:51:13;102101.69;;;13.99;100.00
51781;BME280;37844;57.126;24.288;2023-08-12T01:53:57;102098.22;;;13.98;100.00
51781;BME280;37844;57.126;24.288;2023-08-12T01:56:41;102117.53;;;14.13;100.00
51781;BME280;37844;57.126;24.288;2023-08-12T01:59:25;102110.63;;;14.13;100.00
51781;BME280;37844;57.126;24.288;2023-08-12T02:02:09;102111.38;;;14.08;100.00
51781;BME280;37844;57.126;24.288;2023-08-12T02:04:53;102111.09;;;13.94;100.00
51781;BME280;37844;57.126;24.288;2023-08-12T02:07:37;102112.22;;;14.07;100.00
51781;BME280;37844;57.126;24.288;2023-08-12T02:10:21;102110.66;;;14.15;100.00
51781;BME280;37844;57.126;24.288;2023-08-12T02:13:05;102098.75;;;14.25;100.00
51781;BME280;37844;57.126;24.288;2023-08-12T02:15:49;102101.47;;;14.31;100.00
51781;BME280;37844;57.126;24.288;2023-08-12T02:18:33;102105.84;;;14.33;100.00
51781;BME280;37844;57.126;24.288;2023-08-12T02:21:17;102108.41;;;14.32;100.00
51781;BME280;37844;57.126;24.288;2023-08-12T02:24:01;102099.75;;;14.31;100.00
51781;BME280;37844;57.126;24.288;2023-08-12T02:26:45;102105.94;;;14.38;100.00
51781;BME280;37844;57.126;24.288;2023-08-12T02:29:29;102109.63;;;14.51;100.00
51781;BME280;37844;57.126;24.288;2023-08-12T02:32:13;102106.28;;;14.55;100.00
51781;BME280;37844;57.126;24.288;2023-08-12T02:34:57;102102.66;;;14.48;100.00
51781;BME280;37844;57.126;24.288;2023-08-12T02:37:41;102105.81;;;14.32;100.00
51781;BME280;37844;57.126;24.288;2023-08-12T02:40:25;102105.03;;;14.36;100.00
51781;BME280;37844;57.126;24.288;2023-08-12T02:43:09;102099.66;;;14.27;100.00
51781;BME280;37844;57.126;24.288;2023-08-12T02:45:55;102106.59;;;14.28;100.00
51781;BME280;37844;57.126;24.288;2023-08-12T02:48:39;102116.81;;;14.20;100.00
51781;BME280;37844;57.126;24.288;2023-08-12T02:51:23;102112.72;;;14.31;100.00
51781;BME280;37844;57.126;24.288;2023-08-12T02:54:07;102113.72;;;14.38;100.00
51781;BME280;37844;57.126;24.288;2023-08-12T02:56:51;102115.84;;;14.16;100.00
51781;BME280;37844;57.126;24.288;2023-08-12T02:59:35;102113.09;;;14.07;100.00
51781;BME280;37844;57.126;24.288;2023-08-12T03:02:19;102112.13;;;14.02;100.00
51781;BME280;37844;57.126;24.288;2023-08-12T03:05:04;102112.16;;;14.04;100.00
51781;BME280;37844;57.126;24.288;2023-08-12T03:07:49;102111.38;;;14.09;100.00
51781;BME280;37844;57.126;24.288;2023-08-12T03:10:34;102113.22;;;14.13;100.00
51781;BME280;37844;57.126;24.288;2023-08-12T03:13:18;102118.63;;;14.24;100.00
51781;BME280;37844;57.126;24.288;2023-08-12T03:16:02;102112.47;;;14.19;100.00
51781;BME280;37844;57.126;24.288;2023-08-12T03:18:46;102115.94;;;14.21;100.00
51781;BME280;37844;57.126;24.288;2023-08-12T03:21:30;102113.16;;;14.10;100.00
51781;BME280;37844;57.126;24.288;2023-08-12T03:24:14;102117.63;;;14.17;100.00
51781;BME280;37844;57.126;24.288;2023-08-12T03:26:59;102120.19;;;14.16;100.00
51781;BME280;37844;57.126;24.288;2023-08-12T03:29:43;102116.13;;;14.30;100.00
51781;BME280;37844;57.126;24.288;2023-08-12T03:32:27;102122.38;;;14.40;100.00
51781;BME280;37844;57.126;24.288;2023-08-12T03:35:11;102122.56;;;14.48;100.00
51781;BME280;37844;57.126;24.288;2023-08-12T03:37:55;102107.19;;;14.58;100.00
51781;BME280;37844;57.126;24.288;2023-08-12T03:40:40;102121.84;;;14.56;100.00
51781;BME280;37844;57.126;24.288;2023-08-12T03:43:24;102114.19;;;14.62;100.00
51781;BME280;37844;57.126;24.288;2023-08-12T03:46:08;102113.38;;;14.65;100.00
51781;BME280;37844;57.126;24.288;2023-08-12T03:48:52;102104.84;;;14.72;100.00
51781;BME280;37844;57.126;24.288;2023-08-12T03:51:36;102106.75;;;14.82;100.00
51781;BME280;37844;57.126;24.288;2023-08-12T03:54:20;102106.09;;;14.93;100.00
51781;BME280;37844;57.126;24.288;2023-08-12T03:57:04;102113.22;;;15.06;100.00
51781;BME280;37844;57.126;24.288;2023-08-12T03:59:48;102105.59;;;15.17;100.00
51781;BME280;37844;57.126;24.288;2023-08-12T04:02:32;102108.34;;;15.26;100.00
51781;BME280;37844;57.126;24.288;2023-08-12T04:05:16;102113.66;;;15.34;100.00
51781;BME280;37844;57.126;24.288;2023-08-12T04:08:00;102111.16;;;15.41;100.00
51781;BME280;37844;57.126;24.288;2023-08-12T04:10:46;102114.78;;;15.51;100.00
51781;BME280;37844;57.126;24.288;2023-08-12T04:13:31;102120.06;;;15.57;100.00
51781;BME280;37844;57.126;24.288;2023-08-12T04:16:15;102114.13;;;15.67;100.00
51781;BME280;37844;57.126;24.288;2023-08-12T04:19:00;102119.56;;;15.81;100.00
51781;BME280;37844;57.126;24.288;2023-08-12T04:21:44;102119.88;;;16.04;100.00
51781;BME280;37844;57.126;24.288;2023-08-12T04:24:30;102120.91;;;16.19;100.00
51781;BME280;37844;57.126;24.288;2023-08-12T04:27:14;102110.59;;;16.26;100.00
51781;BME280;37844;57.126;24.288;2023-08-12T04:30:00;102119.44;;;16.44;100.00
51781;BME280;37844;57.126;24.288;2023-08-12T04:32:44;102107.50;;;16.64;100.00
51781;BME280;37844;57.126;24.288;2023-08-12T04:35:31;102102.47;;;16.80;100.00
51781;BME280;37844;57.126;24.288;2023-08-12T04:38:16;102113.94;;;17.00;100.00
51781;BME280;37844;57.126;24.288;2023-08-12T04:40:59;102109.78;;;17.21;100.00
51781;BME280;37844;57.126;24.288;2023-08-12T04:43:44;102099.38;;;17.27;100.00
51781;BME280;37844;57.126;24.288;2023-08-12T04:46:27;102112.53;;;17.45;100.00
51781;BME280;37844;57.126;24.288;2023-08-12T04:49:11;102116.06;;;17.55;100.00
51781;BME280;37844;57.126;24.288;2023-08-12T04:51:55;102121.38;;;17.70;100.00
51781;BME280;37844;57.126;24.288;2023-08-12T04:54:39;102116.25;;;17.83;100.00
51781;BME280;37844;57.126;24.288;2023-08-12T04:57:23;102115.44;;;17.93;100.00
51781;BME280;37844;57.126;24.288;2023-08-12T05:00:08;102117.25;;;18.12;100.00
51781;BME280;37844;57.126;24.288;2023-08-12T05:02:52;102112.91;;;18.13;100.00
51781;BME280;37844;57.126;24.288;2023-08-12T05:05:36;102106.00;;;18.38;100.00
51781;BME280;37844;57.126;24.288;2023-08-12T05:08:20;102109.53;;;18.60;100.00
51781;BME280;37844;57.126;24.288;2023-08-12T05:11:03;102105.25;;;18.80;100.00
51781;BME280;37844;57.126;24.288;2023-08-12T05:13:47;102099.16;;;19.06;100.00
51781;BME280;37844;57.126;24.288;2023-08-12T05:16:31;102100.88;;;19.22;100.00
51781;BME280;37844;57.126;24.288;2023-08-12T05:19:15;102105.16;;;19.53;100.00
51781;BME280;37844;57.126;24.288;2023-08-12T05:21:59;102107.72;;;19.85;100.00
51781;BME280;37844;57.126;24.288;2023-08-12T05:24:43;102097.03;;;20.29;100.00
51781;BME280;37844;57.126;24.288;2023-08-12T05:27:27;102103.81;;;20.66;100.00
51781;BME280;37844;57.126;24.288;2023-08-12T05:30:11;102101.66;;;21.17;100.00
51781;BME280;37844;57.126;24.288;2023-08-12T05:32:55;102099.63;;;21.50;100.00
51781;BME280;37844;57.126;24.288;2023-08-12T05:35:39;102097.97;;;21.35;100.00
51781;BME280;37844;57.126;24.288;2023-08-12T05:38:23;102103.16;;;21.44;100.00
51781;BME280;37844;57.126;24.288;2023-08-12T05:41:07;102100.13;;;22.46;100.00
51781;BME280;37844;57.126;24.288;2023-08-12T05:43:52;102100.03;;;23.10;100.00
51781;BME280;37844;57.126;24.288;2023-08-12T05:46:36;102101.31;;;22.82;99.12
51781;BME280;37844;57.126;24.288;2023-08-12T05:49:20;102097.19;;;22.68;96.36
51781;BME280;37844;57.126;24.288;2023-08-12T05:52:04;102103.75;;;22.39;96.28
51781;BME280;37844;57.126;24.288;2023-08-12T05:54:48;102104.66;;;22.36;96.15
51781;BME280;37844;57.126;24.288;2023-08-12T05:57:32;102103.06;;;22.83;95.22
51781;BME280;37844;57.126;24.288;2023-08-12T06:00:16;102101.66;;;23.15;92.06
51781;BME280;37844;57.126;24.288;2023-08-12T06:03:00;102099.38;;;22.95;89.14
51781;BME280;37844;57.126;24.288;2023-08-12T06:05:45;102106.63;;;22.79;88.40
51781;BME280;37844;57.126;24.288;2023-08-12T06:08:30;102108.88;;;22.48;89.65
51781;BME280;37844;57.126;24.288;2023-08-12T06:11:14;102117.06;;;22.28;90.85
51781;BME280;37844;57.126;24.288;2023-08-12T06:13:58;102108.94;;;22.42;91.02
51781;BME280;37844;57.126;24.288;2023-08-12T06:16:42;102113.59;;;22.25;89.06
51781;BME280;37844;57.126;24.288;2023-08-12T06:19:26;102117.38;;;22.02;88.47
51781;BME280;37844;57.126;24.288;2023-08-12T06:22:10;102108.84;;;21.83;89.41
51781;BME280;37844;57.126;24.288;2023-08-12T06:24:54;102108.97;;;21.72;91.61
51781;BME280;37844;57.126;24.288;2023-08-12T06:27:38;102112.81;;;22.77;91.87
51781;BME280;37844;57.126;24.288;2023-08-12T06:30:22;102102.75;;;23.97;85.90
51781;BME280;37844;57.126;24.288;2023-08-12T06:33:06;102109.84;;;25.07;81.98
51781;BME280;37844;57.126;24.288;2023-08-12T06:35:50;102112.63;;;26.83;75.82
51781;BME280;37844;57.126;24.288;2023-08-12T06:38:35;102110.16;;;28.03;69.98
51781;BME280;37844;57.126;24.288;2023-08-12T06:41:19;102114.25;;;29.20;64.53
51781;BME280;37844;57.126;24.288;2023-08-12T06:44:03;102117.78;;;29.80;61.43
51781;BME280;37844;57.126;24.288;2023-08-12T06:46:48;102121.91;;;29.47;59.31
51781;BME280;37844;57.126;24.288;2023-08-12T06:49:32;102113.16;;;28.83;59.02
51781;BME280;37844;57.126;24.288;2023-08-12T06:52:16;102119.00;;;27.55;60.42
51781;BME280;37844;57.126;24.288;2023-08-12T06:55:00;102118.81;;;26.84;61.80
51781;BME280;37844;57.126;24.288;2023-08-12T06:57:51;102115.03;;;27.16;63.08
51781;BME280;37844;57.126;24.288;2023-08-12T07:00:35;102119.00;;;28.91;61.39
51781;BME280;37844;57.126;24.288;2023-08-12T07:03:26;102112.38;;;30.01;56.90
51781;BME280;37844;57.126;24.288;2023-08-12T07:06:10;102125.44;;;31.50;54.17
51781;BME280;37844;57.126;24.288;2023-08-12T07:08:54;102112.13;;;33.21;51.60
51781;BME280;37844;57.126;24.288;2023-08-12T07:11:40;102124.09;;;33.73;49.04
51781;BME280;37844;57.126;24.288;2023-08-12T07:14:24;102113.94;;;34.61;47.23
51781;BME280;37844;57.126;24.288;2023-08-12T07:17:08;102117.16;;;33.97;46.22
51781;BME280;37844;57.126;24.288;2023-08-12T07:19:52;102110.13;;;33.53;46.34
51781;BME280;37844;57.126;24.288;2023-08-12T07:22:36;102108.78;;;33.18;46.67
51781;BME280;37844;57.126;24.288;2023-08-12T07:25:20;102107.47;;;34.24;45.94
51781;BME280;37844;57.126;24.288;2023-08-12T07:28:04;102099.75;;;34.99;44.79
51781;BME280;37844;57.126;24.288;2023-08-12T07:30:48;102108.13;;;35.33;43.28
51781;BME280;37844;57.126;24.288;2023-08-12T07:33:33;102114.16;;;36.47;43.26
51781;BME280;37844;57.126;24.288;2023-08-12T07:36:17;102105.56;;;36.55;42.04
51781;BME280;37844;57.126;24.288;2023-08-12T07:39:01;102109.75;;;37.28;41.55
51781;BME280;37844;57.126;24.288;2023-08-12T07:41:46;102107.91;;;37.96;41.54
51781;BME280;37844;57.126;24.288;2023-08-12T07:44:30;102109.19;;;37.58;40.25
51781;BME280;37844;57.126;24.288;2023-08-12T07:47:14;102111.56;;;38.06;39.59
51781;BME280;37844;57.126;24.288;2023-08-12T07:49:59;102113.34;;;38.28;39.51
51781;BME280;37844;57.126;24.288;2023-08-12T07:52:43;102112.09;;;38.00;39.61
51781;BME280;37844;57.126;24.288;2023-08-12T07:55:27;102110.00;;;37.92;39.45
51781;BME280;37844;57.126;24.288;2023-08-12T07:58:12;102104.06;;;37.66;39.78
51781;BME280;37844;57.126;24.288;2023-08-12T08:01:02;102094.84;;;37.35;39.55
51781;BME280;37844;57.126;24.288;2023-08-12T08:03:46;102100.84;;;37.50;39.77
51781;BME280;37844;57.126;24.288;2023-08-12T08:06:30;102107.59;;;37.78;39.05
51781;BME280;37844;57.126;24.288;2023-08-12T08:09:14;102101.59;;;37.29;38.43
51781;BME280;37844;57.126;24.288;2023-08-12T08:11:59;102106.81;;;37.08;38.81
51781;BME280;37844;57.126;24.288;2023-08-12T08:14:44;102112.22;;;36.73;38.91
51781;BME280;37844;57.126;24.288;2023-08-12T08:17:28;102112.22;;;36.73;39.43
51781;BME280;37844;57.126;24.288;2023-08-12T08:20:12;102111.84;;;36.18;39.75
51781;BME280;37844;57.126;24.288;2023-08-12T08:22:56;102109.50;;;35.64;39.87
51781;BME280;37844;57.126;24.288;2023-08-12T08:25:40;102111.38;;;35.25;40.35
51781;BME280;37844;57.126;24.288;2023-08-12T08:28:25;102113.88;;;34.75;40.45
51781;BME280;37844;57.126;24.288;2023-08-12T08:31:09;102122.63;;;33.96;42.13
51781;BME280;37844;57.126;24.288;2023-08-12T08:33:53;102119.00;;;33.40;42.80
51781;BME280;37844;57.126;24.288;2023-08-12T08:36:38;102115.19;;;32.85;43.56
51781;BME280;37844;57.126;24.288;2023-08-12T08:39:22;102119.78;;;32.67;42.92
51781;BME280;37844;57.126;24.288;2023-08-12T08:42:06;102120.66;;;31.88;44.26
51781;BME280;37844;57.126;24.288;2023-08-12T08:44:58;102113.88;;;31.16;46.10
51781;BME280;37844;57.126;24.288;2023-08-12T08:47:44;102122.72;;;30.45;47.04
51781;BME280;37844;57.126;24.288;2023-08-12T08:50:30;102125.84;;;30.53;47.22
51781;BME280;37844;57.126;24.288;2023-08-12T08:53:15;102125.22;;;29.72;48.15
51781;BME280;37844;57.126;24.288;2023-08-12T08:56:00;102123.72;;;29.26;49.39
51781;BME280;37844;57.126;24.288;2023-08-12T08:58:45;102125.34;;;28.67;49.40
51781;BME280;37844;57.126;24.288;2023-08-12T09:01:29;102125.66;;;28.36;50.39
51781;BME280;37844;57.126;24.288;2023-08-12T09:04:15;102121.41;;;28.98;51.18
51781;BME280;37844;57.126;24.288;2023-08-12T09:07:00;102126.25;;;29.08;51.06
51781;BME280;37844;57.126;24.288;2023-08-12T09:09:46;102124.69;;;29.64;50.91
51781;BME280;37844;57.126;24.288;2023-08-12T09:12:32;102131.56;;;29.89;50.10
51781;BME280;37844;57.126;24.288;2023-08-12T09:15:29;102129.63;;;29.53;49.43
51781;BME280;37844;57.126;24.288;2023-08-12T09:18:15;102133.47;;;29.66;49.94
51781;BME280;37844;57.126;24.288;2023-08-12T09:21:00;102129.69;;;29.72;49.88
51781;BME280;37844;57.126;24.288;2023-08-12T09:23:44;102126.94;;;29.34;49.47
51781;BME280;37844;57.126;24.288;2023-08-12T09:26:29;102129.84;;;29.28;49.49
51781;BME280;37844;57.126;24.288;2023-08-12T09:29:12;102130.28;;;29.37;49.59
51781;BME280;37844;57.126;24.288;2023-08-12T09:32:11;102120.22;;;29.46;48.97
51781;BME280;37844;57.126;24.288;2023-08-12T09:34:56;102120.28;;;29.63;49.35
51781;BME280;37844;57.126;24.288;2023-08-12T09:37:41;102119.34;;;29.25;49.92
51781;BME280;37844;57.126;24.288;2023-08-12T09:40:25;102118.91;;;29.15;49.78
51781;BME280;37844;57.126;24.288;2023-08-12T09:43:10;102113.00;;;29.08;49.44
51781;BME280;37844;57.126;24.288;2023-08-12T09:45:56;102112.25;;;29.05;49.24
51781;BME280;37844;57.126;24.288;2023-08-12T09:48:42;102115.34;;;28.94;49.61
51781;BME280;37844;57.126;24.288;2023-08-12T09:51:34;102115.94;;;29.01;50.28
51781;BME280;37844;57.126;24.288;2023-08-12T09:54:19;102126.25;;;28.88;50.22
51781;BME280;37844;57.126;24.288;2023-08-12T09:57:08;102129.47;;;28.28;49.63
51781;BME280;37844;57.126;24.288;2023-08-12T09:59:57;102127.56;;;28.10;50.57
51781;BME280;37844;57.126;24.288;2023-08-12T10:02:43;102132.47;;;27.97;51.36
51781;BME280;37844;57.126;24.288;2023-08-12T10:05:28;102137.44;;;27.58;52.34
51781;BME280;37844;57.126;24.288;2023-08-12T10:08:15;102128.69;;;27.31;51.99
51781;BME280;37844;57.126;24.288;2023-08-12T10:11:01;102134.31;;;26.95;50.23
51781;BME280;37844;57.126;24.288;2023-08-12T10:13:46;102124.44;;;26.73;50.99
51781;BME280;37844;57.126;24.288;2023-08-12T10:16:32;102129.88;;;26.69;50.40
51781;BME280;37844;57.126;24.288;2023-08-12T10:19:17;102132.75;;;26.33;52.48
51781;BME280;37844;57.126;24.288;2023-08-12T10:22:05;102125.44;;;26.13;53.24
51781;BME280;37844;57.126;24.288;2023-08-12T10:24:49;102120.03;;;26.16;51.31
51781;BME280;37844;57.126;24.288;2023-08-12T10:27:34;102129.25;;;26.02;53.61
51781;BME280;37844;57.126;24.288;2023-08-12T10:30:20;102118.78;;;25.99;53.90
51781;BME280;37844;57.126;24.288;2023-08-12T10:33:04;102122.28;;;25.69;53.31
51781;BME280;37844;57.126;24.288;2023-08-12T10:35:50;102120.75;;;25.60;52.85
51781;BME280;37844;57.126;24.288;2023-08-12T10:38:34;102111.50;;;25.45;54.15
51781;BME280;37844;57.126;24.288;2023-08-12T10:41:20;102116.78;;;25.45;54.98
51781;BME280;37844;57.126;24.288;2023-08-12T10:44:05;102116.72;;;25.12;55.10
51781;BME280;37844;57.126;24.288;2023-08-12T10:46:50;102117.25;;;24.92;56.22
51781;BME280;37844;57.126;24.288;2023-08-12T10:49:48;102110.59;;;24.78;56.90
51781;BME280;37844;57.126;24.288;2023-08-12T10:52:33;102104.31;;;24.82;60.14
51781;BME280;37844;57.126;24.288;2023-08-12T10:55:23;102101.41;;;24.92;61.70
51781;BME280;37844;57.126;24.288;2023-08-12T10:58:08;102102.97;;;25.01;59.78
51781;BME280;37844;57.126;24.288;2023-08-12T11:00:56;102094.78;;;24.78;59.97
51781;BME280;37844;57.126;24.288;2023-08-12T11:03:42;102089.06;;;24.94;59.63
51781;BME280;37844;57.126;24.288;2023-08-12T11:06:27;102095.19;;;24.95;60.10
51781;BME280;37844;57.126;24.288;2023-08-12T11:09:12;102097.63;;;24.68;59.20
51781;BME280;37844;57.126;24.288;2023-08-12T11:12:00;102100.41;;;24.62;57.87
51781;BME280;37844;57.126;24.288;2023-08-12T11:14:53;102094.25;;;24.63;60.25
51781;BME280;37844;57.126;24.288;2023-08-12T11:17:42;102091.00;;;24.52;60.51
51781;BME280;37844;57.126;24.288;2023-08-12T11:20:27;102090.25;;;24.44;61.99
51781;BME280;37844;57.126;24.288;2023-08-12T11:23:13;102086.31;;;24.26;61.04
51781;BME280;37844;57.126;24.288;2023-08-12T11:25:57;102085.75;;;24.10;61.58
51781;BME280;37844;57.126;24.288;2023-08-12T11:28:42;102076.16;;;24.09;62.60
51781;BME280;37844;57.126;24.288;2023-08-12T11:31:26;102079.63;;;24.09;62.48
51781;BME280;37844;57.126;24.288;2023-08-12T11:34:11;102063.75;;;24.12;62.23
51781;BME280;37844;57.126;24.288;2023-08-12T11:36:56;102070.25;;;23.98;60.06
51781;BME280;37844;57.126;24.288;2023-08-12T11:39:41;102066.38;;;23.74;58.70
51781;BME280;37844;57.126;24.288;2023-08-12T11:42:24;102069.69;;;23.82;59.60
51781;BME280;37844;57.126;24.288;2023-08-12T11:45:09;102069.25;;;23.60;60.28
51781;BME280;37844;57.126;24.288;2023-08-12T11:47:53;102063.69;;;23.75;61.67
51781;BME280;37844;57.126;24.288;2023-08-12T11:50:37;102064.53;;;23.77;61.72
51781;BME280;37844;57.126;24.288;2023-08-12T11:53:22;102067.22;;;23.74;60.40
51781;BME280;37844;57.126;24.288;2023-08-12T11:56:06;102060.34;;;23.65;61.49
51781;BME280;37844;57.126;24.288;2023-08-12T11:58:51;102057.78;;;23.62;61.80
51781;BME280;37844;57.126;24.288;2023-08-12T12:01:38;102060.44;;;23.61;60.78
51781;BME280;37844;57.126;24.288;2023-08-12T12:04:22;102059.75;;;23.51;60.63
51781;BME280;37844;57.126;24.288;2023-08-12T12:07:20;102066.78;;;23.50;60.59
51781;BME280;37844;57.126;24.288;2023-08-12T12:10:05;102060.84;;;23.42;61.98
51781;BME280;37844;57.126;24.288;2023-08-12T12:12:50;102071.44;;;23.38;62.67
51781;BME280;37844;57.126;24.288;2023-08-12T12:15:43;102066.03;;;23.45;61.52
51781;BME280;37844;57.126;24.288;2023-08-12T12:18:27;102070.44;;;23.43;60.05
51781;BME280;37844;57.126;24.288;2023-08-12T12:21:12;102057.31;;;23.42;63.17
51781;BME280;37844;57.126;24.288;2023-08-12T12:24:04;102046.09;;;23.32;62.02
51781;BME280;37844;57.126;24.288;2023-08-12T12:26:49;102054.97;;;23.28;64.96
51781;BME280;37844;57.126;24.288;2023-08-12T12:29:33;102053.03;;;23.36;65.96
51781;BME280;37844;57.126;24.288;2023-08-12T12:32:18;102053.13;;;23.32;64.49
51781;BME280;37844;57.126;24.288;2023-08-12T12:35:04;102048.81;;;23.27;65.23
51781;BME280;37844;57.126;24.288;2023-08-12T12:37:51;102056.53;;;23.37;65.04
51781;BME280;37844;57.126;24.288;2023-08-12T12:40:34;102052.97;;;23.39;65.82
51781;BME280;37844;57.126;24.288;2023-08-12T12:43:18;102051.16;;;23.43;64.89
51781;BME280;37844;57.126;24.288;2023-08-12T12:46:02;102043.28;;;23.41;65.21
51781;BME280;37844;57.126;24.288;2023-08-12T12:48:46;102050.34;;;23.39;65.13
51781;BME280;37844;57.126;24.288;2023-08-12T12:51:30;102051.41;;;23.31;64.73
51781;BME280;37844;57.126;24.288;2023-08-12T12:54:14;102047.88;;;23.30;64.63
51781;BME280;37844;57.126;24.288;2023-08-12T12:56:59;102053.28;;;23.24;66.08
51781;BME280;37844;57.126;24.288;2023-08-12T12:59:43;102047.38;;;23.11;67.13
51781;BME280;37844;57.126;24.288;2023-08-12T13:02:27;102053.63;;;23.05;65.57
51781;BME280;37844;57.126;24.288;2023-08-12T13:05:11;102048.56;;;22.93;66.21
51781;BME280;37844;57.126;24.288;2023-08-12T13:07:55;102049.47;;;22.92;67.73
51781;BME280;37844;57.126;24.288;2023-08-12T13:10:39;102046.78;;;22.94;67.40
51781;BME280;37844;57.126;24.288;2023-08-12T13:13:23;102040.81;;;22.85;66.15
51781;BME280;37844;57.126;24.288;2023-08-12T13:16:08;102040.69;;;22.92;67.96
51781;BME280;37844;57.126;24.288;2023-08-12T13:18:52;102040.91;;;22.78;67.30
51781;BME280;37844;57.126;24.288;2023-08-12T13:21:36;102037.50;;;22.73;69.30
51781;BME280;37844;57.126;24.288;2023-08-12T13:24:20;102038.34;;;22.76;69.32
51781;BME280;37844;57.126;24.288;2023-08-12T13:27:04;102035.66;;;22.78;68.66
51781;BME280;37844;57.126;24.288;2023-08-12T13:29:48;102038.25;;;22.81;67.46
51781;BME280;37844;57.126;24.288;2023-08-12T13:32:32;102035.66;;;22.79;68.34
51781;BME280;37844;57.126;24.288;2023-08-12T13:35:17;102033.16;;;22.70;66.98
51781;BME280;37844;57.126;24.288;2023-08-12T13:38:01;102030.59;;;22.67;66.88
51781;BME280;37844;57.126;24.288;2023-08-12T13:40:45;102029.66;;;22.71;67.41
51781;BME280;37844;57.126;24.288;2023-08-12T13:43:29;102033.13;;;22.73;68.43
51781;BME280;37844;57.126;24.288;2023-08-12T13:46:14;102038.56;;;22.61;69.54
51781;BME280;37844;57.126;24.288;2023-08-12T13:48:58;102041.22;;;22.61;70.49
51781;BME280;37844;57.126;24.288;2023-08-12T13:51:42;102038.72;;;22.53;69.68
51781;BME280;37844;57.126;24.288;2023-08-12T13:54:26;102033.53;;;22.49;69.79
51781;BME280;37844;57.126;24.288;2023-08-12T13:57:10;102030.94;;;22.47;70.42
51781;BME280;37844;57.126;24.288;2023-08-12T13:59:55;102020.50;;;22.42;72.01
51781;BME280;37844;57.126;24.288;2023-08-12T14:02:39;102028.41;;;22.39;71.86
51781;BME280;37844;57.126;24.288;2023-08-12T14:05:24;102022.22;;;22.45;72.71
51781;BME280;37844;57.126;24.288;2023-08-12T14:08:08;102024.09;;;22.37;70.67